INFORMAÇÕES DO AERODROMO
Icao Aerodromo VQPR Nome do Aerodromo Paro Airport Cidade Paro
Código GPS VQPR Elevação Média 7332 ft Tipo de Aerodromo Aeroporto Médio Porte

INFORMAÇÃO DE PISTA
Pista 15 Comprimento da Pista 6445 ft Largura da Pista 95 ft
Elevação da Pista 7355 ft Distância de Area de Escape da Pista 0 ft Orientação da Pista 151
Pista 33 Comprimento da Pista 6445 ft Largura da Pista 95 ft
Elevação da Pista 7328 ft Distância de Area de Escape da Pista 0 ft Orientação da Pista 331

FREQUÊNCIAS DO AERODROMO

INFORMAÇÕES DE NAVEGAÇÃO PRÓXIMO AO AERODROMO
Tipo NDB Nome Paro Frequência 410 KHZ
Tipo VOR Nome Paro Frequência 108400 KHZ

Informações de Meteorologia(METAR atual)
METAR DE VQPR
ADDS - METARS form results

(0525 UTC 24 February 2019)
Data provider http://aviationweather.gov/metar/data/
 
METAR text: VQPR 240500Z VRB02KT 9999 SKC 15/00 Q1017
Conditions at: VQPR (PARO , BT) observed 0500 UTC 24 February 2019
Temperature: 15.0°C (59°F)
Dewpoint: 0.0°C (32°F) [RH = 36%]
Pressure (altimeter): 30.03 inches Hg (1017.0 mb)
Winds: variable direction winds at 2 MPH (2 knots; 1.0 m/s)
Visibility: 6 or more miles (10+ km)
Ceiling: at least 12,000 feet AGL
Clouds: clear skies
Weather: no significant weather observed at this time

METAR text: VQPR 240430Z 15005KT 9999 SKC 12/01 Q1018
Conditions at: VQPR (PARO , BT) observed 0430 UTC 24 February 2019
Temperature: 12.0°C (54°F)
Dewpoint: 1.0°C (34°F) [RH = 47%]
Pressure (altimeter): 30.06 inches Hg (1018.0 mb)
Winds: from the SSE (150 degrees) at 6 MPH (5 knots; 2.6 m/s)
Visibility: 6 or more miles (10+ km)
Ceiling: at least 12,000 feet AGL
Clouds: clear skies
Weather: no significant weather observed at this time

MAPA DO AERODROMO


Desenvolvido por Virtual Airlines Manager




Modificado por Servidor Brasil Amigos